sensor_id;sensor_type;location;lat;lon;timestamp;pressure;altitude;pressure_sealevel;temperature;humidity
20015;BME280;61787;42.022;23.078;2023-05-29T00:00:33;96413.50;;;16.93;83.49
20015;BME280;61787;42.022;23.078;2023-05-29T00:01:35;96420.09;;;16.92;83.69
20015;BME280;61787;42.022;23.078;2023-05-29T00:02:37;96420.47;;;16.94;83.91
20015;BME280;61787;42.022;23.078;2023-05-29T00:03:39;96417.41;;;16.99;83.19
20015;BME280;61787;42.022;23.078;2023-05-29T00:04:41;96421.28;;;17.05;82.47
20015;BME280;61787;42.022;23.078;2023-05-29T00:05:42;96418.19;;;17.10;82.07
20015;BME280;61787;42.022;23.078;2023-05-29T00:06:44;96412.78;;;17.03;81.99
20015;BME280;61787;42.022;23.078;2023-05-29T00:07:46;96413.53;;;16.96;82.73
20015;BME280;61787;42.022;23.078;2023-05-29T00:08:47;96413.94;;;17.02;82.45
20015;BME280;61787;42.022;23.078;2023-05-29T00:09:49;96423.63;;;17.10;82.24
20015;BME280;61787;42.022;23.078;2023-05-29T00:10:51;96425.19;;;17.15;81.89
20015;BME280;61787;42.022;23.078;2023-05-29T00:11:52;96421.31;;;17.19;81.64
20015;BME280;61787;42.022;23.078;2023-05-29T00:12:54;96431.34;;;17.04;81.35
20015;BME280;61787;42.022;23.078;2023-05-29T00:13:57;96430.56;;;16.97;82.40
20015;BME280;61787;42.022;23.078;2023-05-29T00:14:59;96422.81;;;16.99;81.86
20015;BME280;61787;42.022;23.078;2023-05-29T00:16:01;96425.16;;;17.04;81.35
20015;BME280;61787;42.022;23.078;2023-05-29T00:17:05;96431.75;;;17.03;81.08
20015;BME280;61787;42.022;23.078;2023-05-29T00:18:07;96423.59;;;16.96;81.31
20015;BME280;61787;42.022;23.078;2023-05-29T00:19:09;96433.22;;;16.76;81.78
20015;BME280;61787;42.022;23.078;2023-05-29T00:20:11;96426.59;;;16.70;82.20
20015;BME280;61787;42.022;23.078;2023-05-29T00:21:13;96428.13;;;16.63;82.75
20015;BME280;61787;42.022;23.078;2023-05-29T00:22:15;96431.97;;;16.59;83.50
20015;BME280;61787;42.022;23.078;2023-05-29T00:23:17;96432.75;;;16.59;83.09
20015;BME280;61787;42.022;23.078;2023-05-29T00:24:19;96432.69;;;16.49;84.30
20015;BME280;61787;42.022;23.078;2023-05-29T00:25:21;96433.81;;;16.44;85.15
20015;BME280;61787;42.022;23.078;2023-05-29T00:26:23;96434.22;;;16.46;84.98
20015;BME280;61787;42.022;23.078;2023-05-29T00:27:24;96428.81;;;16.50;85.60
20015;BME280;61787;42.022;23.078;2023-05-29T00:28:27;96431.91;;;16.48;85.98
20015;BME280;61787;42.022;23.078;2023-05-29T00:29:28;96429.97;;;16.52;86.21
20015;BME280;61787;42.022;23.078;2023-05-29T00:30:30;96430.78;;;16.56;86.79
20015;BME280;61787;42.022;23.078;2023-05-29T00:31:32;96426.13;;;16.53;87.01
20015;BME280;61787;42.022;23.078;2023-05-29T00:32:33;96430.38;;;16.54;87.44
20015;BME280;61787;42.022;23.078;2023-05-29T00:33:35;96431.97;;;16.59;87.19
20015;BME280;61787;42.022;23.078;2023-05-29T00:34:37;96429.69;;;16.65;86.42
20015;BME280;61787;42.022;23.078;2023-05-29T00:35:39;96423.13;;;16.66;86.99
20015;BME280;61787;42.022;23.078;2023-05-29T00:36:41;96427.34;;;16.63;87.93
20015;BME280;61787;42.022;23.078;2023-05-29T00:37:42;96423.88;;;16.62;87.62
20015;BME280;61787;42.022;23.078;2023-05-29T00:38:44;96422.66;;;16.56;87.59
20015;BME280;61787;42.022;23.078;2023-05-29T00:39:46;96429.25;;;16.55;87.21
20015;BME280;61787;42.022;23.078;2023-05-29T00:40:47;96426.91;;;16.54;88.33
20015;BME280;61787;42.022;23.078;2023-05-29T00:41:49;96430.31;;;16.40;89.43
20015;BME280;61787;42.022;23.078;2023-05-29T00:42:52;96428.00;;;16.42;89.53
20015;BME280;61787;42.022;23.078;2023-05-29T00:43:54;96427.25;;;16.45;88.87
20015;BME280;61787;42.022;23.078;2023-05-29T00:44:55;96429.56;;;16.47;88.54
20015;BME280;61787;42.022;23.078;2023-05-29T00:45:57;96437.31;;;16.48;87.15
20015;BME280;61787;42.022;23.078;2023-05-29T00:46:59;96431.88;;;16.41;86.98
20015;BME280;61787;42.022;23.078;2023-05-29T00:48:02;96438.81;;;16.35;87.42
20015;BME280;61787;42.022;23.078;2023-05-29T00:49:05;96431.47;;;16.39;86.67
20015;BME280;61787;42.022;23.078;2023-05-29T00:50:08;96426.13;;;16.46;86.40
20015;BME280;61787;42.022;23.078;2023-05-29T00:51:13;96434.25;;;16.53;85.77
20015;BME280;61787;42.022;23.078;2023-05-29T00:52:15;96428.09;;;16.56;85.67
20015;BME280;61787;42.022;23.078;2023-05-29T00:53:17;96433.09;;;16.54;84.93
20015;BME280;61787;42.022;23.078;2023-05-29T00:54:22;96425.78;;;16.58;84.90
20015;BME280;61787;42.022;23.078;2023-05-29T00:55:24;96431.63;;;16.64;84.49
20015;BME280;61787;42.022;23.078;2023-05-29T00:56:26;96422.34;;;16.69;83.03
20015;BME280;61787;42.022;23.078;2023-05-29T00:57:28;96423.91;;;16.66;82.06
20015;BME280;61787;42.022;23.078;2023-05-29T00:58:30;96426.56;;;16.59;80.81
20015;BME280;61787;42.022;23.078;2023-05-29T00:59:33;96432.72;;;16.56;80.50
20015;BME280;61787;42.022;23.078;2023-05-29T01:00:35;96428.84;;;16.57;80.57
20015;BME280;61787;42.022;23.078;2023-05-29T01:01:38;96429.63;;;16.57;80.85
20015;BME280;61787;42.022;23.078;2023-05-29T01:02:42;96426.91;;;16.57;80.82
20015;BME280;61787;42.022;23.078;2023-05-29T01:03:46;96419.97;;;16.56;81.16
20015;BME280;61787;42.022;23.078;2023-05-29T01:04:50;96418.78;;;16.57;81.61
20015;BME280;61787;42.022;23.078;2023-05-29T01:05:55;96421.50;;;16.57;81.98
20015;BME280;61787;42.022;23.078;2023-05-29T01:07:00;96421.94;;;16.59;82.44
20015;BME280;61787;42.022;23.078;2023-05-29T01:08:03;96415.75;;;16.59;82.50
20015;BME280;61787;42.022;23.078;2023-05-29T01:09:05;96422.72;;;16.60;82.92
20015;BME280;61787;42.022;23.078;2023-05-29T01:10:07;96421.56;;;16.65;82.91
20015;BME280;61787;42.022;23.078;2023-05-29T01:12:50;96420.00;;;16.63;82.36
20015;BME280;61787;42.022;23.078;2023-05-29T01:13:55;96411.88;;;16.63;82.22
20015;BME280;61787;42.022;23.078;2023-05-29T01:16:35;96410.63;;;16.43;82.54
20015;BME280;61787;42.022;23.078;2023-05-29T01:24:23;96418.56;;;16.11;85.75
20015;BME280;61787;42.022;23.078;2023-05-29T01:27:17;96421.75;;;16.24;84.78
20015;BME280;61787;42.022;23.078;2023-05-29T01:28:21;96418.25;;;16.27;84.29
20015;BME280;61787;42.022;23.078;2023-05-29T01:29:29;96421.38;;;16.29;84.20
20015;BME280;61787;42.022;23.078;2023-05-29T01:30:32;96421.78;;;16.31;84.50
20015;BME280;61787;42.022;23.078;2023-05-29T01:31:36;96418.66;;;16.26;85.21
20015;BME280;61787;42.022;23.078;2023-05-29T01:32:39;96415.56;;;16.24;85.11
20015;BME280;61787;42.022;23.078;2023-05-29T01:33:41;96412.84;;;16.20;84.91
20015;BME280;61787;42.022;23.078;2023-05-29T01:34:42;96422.47;;;16.21;85.47
20015;BME280;61787;42.022;23.078;2023-05-29T01:35:44;96414.78;;;16.27;84.19
20015;BME280;61787;42.022;23.078;2023-05-29T01:36:46;96412.50;;;16.32;84.56
20015;BME280;61787;42.022;23.078;2023-05-29T01:37:48;96420.66;;;16.39;84.37
20015;BME280;61787;42.022;23.078;2023-05-29T01:38:51;96411.75;;;16.42;84.06
20015;BME280;61787;42.022;23.078;2023-05-29T01:39:53;96412.53;;;16.39;84.29
20015;BME280;61787;42.022;23.078;2023-05-29T01:40:55;96417.94;;;16.39;85.14
20015;BME280;61787;42.022;23.078;2023-05-29T01:41:58;96417.16;;;16.35;84.88
20015;BME280;61787;42.022;23.078;2023-05-29T01:43:01;96419.47;;;16.33;85.35
20015;BME280;61787;42.022;23.078;2023-05-29T01:44:05;96420.59;;;16.25;84.97
20015;BME280;61787;42.022;23.078;2023-05-29T01:45:11;96412.38;;;16.11;85.94
20015;BME280;61787;42.022;23.078;2023-05-29T01:46:14;96412.38;;;16.07;86.22
20015;BME280;61787;42.022;23.078;2023-05-29T01:47:16;96409.28;;;16.05;85.71
20015;BME280;61787;42.022;23.078;2023-05-29T01:48:18;96411.06;;;15.84;85.99
20015;BME280;61787;42.022;23.078;2023-05-29T01:49:20;96414.41;;;15.66;86.92
20015;BME280;61787;42.022;23.078;2023-05-29T01:50:24;96412.06;;;15.65;87.05
20015;BME280;61787;42.022;23.078;2023-05-29T01:51:27;96412.06;;;15.61;87.02
20015;BME280;61787;42.022;23.078;2023-05-29T01:52:29;96410.47;;;15.53;87.38
20015;BME280;61787;42.022;23.078;2023-05-29T01:53:31;96412.66;;;15.44;87.80
20015;BME280;61787;42.022;23.078;2023-05-29T01:54:32;96409.44;;;15.28;88.58
20015;BME280;61787;42.022;23.078;2023-05-29T01:55:34;96407.81;;;15.20;88.79
20015;BME280;61787;42.022;23.078;2023-05-29T01:56:36;96403.19;;;15.20;89.38
20015;BME280;61787;42.022;23.078;2023-05-29T01:57:38;96407.78;;;15.13;89.62
20015;BME280;61787;42.022;23.078;2023-05-29T01:58:40;96417.63;;;14.98;90.91
20015;BME280;61787;42.022;23.078;2023-05-29T01:59:43;96414.34;;;14.78;91.66
20015;BME280;61787;42.022;23.078;2023-05-29T02:00:44;96413.09;;;14.69;92.51
20015;BME280;61787;42.022;23.078;2023-05-29T02:01:47;96411.13;;;14.66;93.07
20015;BME280;61787;42.022;23.078;2023-05-29T02:02:49;96416.75;;;14.54;93.35
20015;BME280;61787;42.022;23.078;2023-05-29T02:03:51;96407.75;;;14.42;94.52
20015;BME280;61787;42.022;23.078;2023-05-29T02:04:52;96413.84;;;14.36;95.04
20015;BME280;61787;42.022;23.078;2023-05-29T02:05:56;96409.44;;;14.24;95.93
20015;BME280;61787;42.022;23.078;2023-05-29T02:06:58;96412.75;;;14.11;96.54
20015;BME280;61787;42.022;23.078;2023-05-29T02:08:00;96412.69;;;14.07;97.61
20015;BME280;61787;42.022;23.078;2023-05-29T02:09:02;96412.75;;;14.11;97.71
20015;BME280;61787;42.022;23.078;2023-05-29T02:10:05;96416.75;;;14.24;96.96
20015;BME280;61787;42.022;23.078;2023-05-29T02:11:06;96420.63;;;14.26;96.52
20015;BME280;61787;42.022;23.078;2023-05-29T02:12:08;96412.81;;;14.18;96.94
20015;BME280;61787;42.022;23.078;2023-05-29T02:13:10;96415.78;;;14.09;97.42
20015;BME280;61787;42.022;23.078;2023-05-29T02:14:11;96409.72;;;14.16;97.86
20015;BME280;61787;42.022;23.078;2023-05-29T02:15:13;96419.03;;;14.22;96.92
20015;BME280;61787;42.022;23.078;2023-05-29T02:16:15;96405.94;;;14.20;96.72
20015;BME280;61787;42.022;23.078;2023-05-29T02:17:16;96411.56;;;14.12;97.38
20015;BME280;61787;42.022;23.078;2023-05-29T02:18:20;96412.78;;;14.14;97.46
20015;BME280;61787;42.022;23.078;2023-05-29T02:19:22;96417.88;;;14.23;96.98
20015;BME280;61787;42.022;23.078;2023-05-29T02:20:26;96413.31;;;14.27;96.68
20015;BME280;61787;42.022;23.078;2023-05-29T02:21:28;96405.16;;;14.20;96.94
20015;BME280;61787;42.022;23.078;2023-05-29T02:22:30;96405.00;;;14.09;97.57
20015;BME280;61787;42.022;23.078;2023-05-29T02:23:31;96416.88;;;14.04;97.33
20015;BME280;61787;42.022;23.078;2023-05-29T02:24:33;96418.75;;;14.00;98.07
20015;BME280;61787;42.022;23.078;2023-05-29T02:25:35;96420.31;;;14.01;97.51
20015;BME280;61787;42.022;23.078;2023-05-29T02:26:37;96416.88;;;14.04;97.10
20015;BME280;61787;42.022;23.078;2023-05-29T02:27:38;96420.31;;;14.01;97.65
20015;BME280;61787;42.022;23.078;2023-05-29T02:28:40;96421.84;;;14.02;97.51
20015;BME280;61787;42.022;23.078;2023-05-29T02:29:42;96431.78;;;13.95;97.80
20015;BME280;61787;42.022;23.078;2023-05-29T02:30:43;96424.66;;;13.83;98.62
20015;BME280;61787;42.022;23.078;2023-05-29T02:31:45;96428.81;;;13.77;99.52
20015;BME280;61787;42.022;23.078;2023-05-29T02:32:47;96426.00;;;13.70;100.00
20015;BME280;61787;42.022;23.078;2023-05-29T02:33:48;96426.72;;;13.67;100.00
20015;BME280;61787;42.022;23.078;2023-05-29T02:34:50;96430.63;;;13.70;100.00
20015;BME280;61787;42.022;23.078;2023-05-29T02:35:53;96427.88;;;13.66;100.00
20015;BME280;61787;42.022;23.078;2023-05-29T02:36:55;96428.94;;;13.61;100.00
20015;BME280;61787;42.022;23.078;2023-05-29T02:37:58;96444.03;;;13.66;100.00
20015;BME280;61787;42.022;23.078;2023-05-29T02:38:59;96439.47;;;13.70;100.00
20015;BME280;61787;42.022;23.078;2023-05-29T02:40:01;96438.75;;;13.73;100.00
20015;BME280;61787;42.022;23.078;2023-05-29T02:41:03;96442.28;;;13.77;100.00
20015;BME280;61787;42.022;23.078;2023-05-29T02:42:04;96439.16;;;13.75;100.00
20015;BME280;61787;42.022;23.078;2023-05-29T02:43:08;96444.63;;;13.79;100.00
20015;BME280;61787;42.022;23.078;2023-05-29T02:44:11;96439.91;;;13.72;100.00
20015;BME280;61787;42.022;23.078;2023-05-29T02:45:13;96443.25;;;13.65;100.00
20015;BME280;61787;42.022;23.078;2023-05-29T02:46:14;96440.97;;;13.68;100.00
20015;BME280;61787;42.022;23.078;2023-05-29T02:47:16;96438.25;;;13.64;100.00
20015;BME280;61787;42.022;23.078;2023-05-29T02:48:18;96426.72;;;13.67;100.00
20015;BME280;61787;42.022;23.078;2023-05-29T02:49:19;96431.84;;;13.76;100.00
20015;BME280;61787;42.022;23.078;2023-05-29T02:50:21;96429.63;;;13.81;99.88
20015;BME280;61787;42.022;23.078;2023-05-29T02:51:22;96427.69;;;13.78;98.15
20015;BME280;61787;42.022;23.078;2023-05-29T02:52:24;96426.84;;;13.74;98.18
20015;BME280;61787;42.022;23.078;2023-05-29T02:53:26;96429.25;;;13.79;98.02
20015;BME280;61787;42.022;23.078;2023-05-29T02:54:27;96430.88;;;13.87;97.58
20015;BME280;61787;42.022;23.078;2023-05-29T02:55:29;96427.09;;;13.92;97.28
20015;BME280;61787;42.022;23.078;2023-05-29T02:56:33;96424.09;;;13.97;97.09
20015;BME280;61787;42.022;23.078;2023-05-29T02:57:35;96431.16;;;14.05;96.91
20015;BME280;61787;42.022;23.078;2023-05-29T02:58:37;96431.19;;;14.08;96.57
20015;BME280;61787;42.022;23.078;2023-05-29T02:59:39;96431.19;;;14.08;96.97
20015;BME280;61787;42.022;23.078;2023-05-29T03:00:40;96429.09;;;13.95;97.59
20015;BME280;61787;42.022;23.078;2023-05-29T03:01:42;96434.81;;;13.93;98.09
20015;BME280;61787;42.022;23.078;2023-05-29T03:02:44;96434.59;;;14.05;98.25
20015;BME280;61787;42.022;23.078;2023-05-29T03:03:45;96431.31;;;14.16;97.10
20015;BME280;61787;42.022;23.078;2023-05-29T03:04:47;96430.66;;;14.26;96.79
20015;BME280;61787;42.022;23.078;2023-05-29T03:05:52;96445.06;;;14.37;96.17
20015;BME280;61787;42.022;23.078;2023-05-29T03:06:54;96434.81;;;14.46;95.83
20015;BME280;61787;42.022;23.078;2023-05-29T03:07:55;96441.81;;;14.54;95.58
20015;BME280;61787;42.022;23.078;2023-05-29T03:08:57;96438.03;;;14.59;95.37
20015;BME280;61787;42.022;23.078;2023-05-29T03:10:00;96442.72;;;14.62;95.12
20015;BME280;61787;42.022;23.078;2023-05-29T03:11:02;96446.53;;;14.61;94.73
20015;BME280;61787;42.022;23.078;2023-05-29T03:12:05;96444.66;;;14.65;94.74
20015;BME280;61787;42.022;23.078;2023-05-29T03:13:06;96445.88;;;14.71;94.73
20015;BME280;61787;42.022;23.078;2023-05-29T03:14:08;96438.97;;;14.73;94.19
20015;BME280;61787;42.022;23.078;2023-05-29T03:15:10;96442.91;;;14.79;94.31
20015;BME280;61787;42.022;23.078;2023-05-29T03:16:12;96445.19;;;14.77;93.70
20015;BME280;61787;42.022;23.078;2023-05-29T03:17:14;96450.09;;;14.68;93.55
20015;BME280;61787;42.022;23.078;2023-05-29T03:18:16;96445.00;;;14.63;94.10
20015;BME280;61787;42.022;23.078;2023-05-29T03:19:18;96452.00;;;14.68;94.05
20015;BME280;61787;42.022;23.078;2023-05-29T03:20:19;96460.22;;;14.45;93.34
20015;BME280;61787;42.022;23.078;2023-05-29T03:21:21;96456.78;;;14.22;94.68
20015;BME280;61787;42.022;23.078;2023-05-29T03:22:23;96460.66;;;13.94;96.29
20015;BME280;61787;42.022;23.078;2023-05-29T03:23:24;96465.75;;;13.77;97.56
20015;BME280;61787;42.022;23.078;2023-05-29T03:24:28;96460.09;;;13.59;99.18
20015;BME280;61787;42.022;23.078;2023-05-29T03:25:29;96462.78;;;13.59;99.85
20015;BME280;61787;42.022;23.078;2023-05-29T03:26:31;96463.50;;;13.56;100.00
20015;BME280;61787;42.022;23.078;2023-05-29T03:27:32;96466.09;;;13.49;100.00
20015;BME280;61787;42.022;23.078;2023-05-29T03:28:34;96466.53;;;13.54;100.00
20015;BME280;61787;42.022;23.078;2023-05-29T03:29:37;96463.50;;;13.56;100.00
20015;BME280;61787;42.022;23.078;2023-05-29T03:30:38;96472.00;;;13.58;100.00
20015;BME280;61787;42.022;23.078;2023-05-29T03:31:40;96473.19;;;13.60;100.00
20015;BME280;61787;42.022;23.078;2023-05-29T03:32:42;96474.31;;;13.59;100.00
20015;BME280;61787;42.022;23.078;2023-05-29T03:33:43;96475.00;;;13.53;100.00
20015;BME280;61787;42.022;23.078;2023-05-29T03:34:46;96470.25;;;13.46;100.00
20015;BME280;61787;42.022;23.078;2023-05-29T03:35:49;96474.00;;;13.38;100.00
20015;BME280;61787;42.022;23.078;2023-05-29T03:36:50;96474.63;;;13.32;100.00
20015;BME280;61787;42.022;23.078;2023-05-29T03:37:52;96479.88;;;13.24;100.00
20015;BME280;61787;42.022;23.078;2023-05-29T03:38:54;96483.31;;;13.21;100.00
20015;BME280;61787;42.022;23.078;2023-05-29T03:39:55;96482.03;;;13.15;100.00
20015;BME280;61787;42.022;23.078;2023-05-29T03:40:57;96483.59;;;13.16;100.00
20015;BME280;61787;42.022;23.078;2023-05-29T03:41:59;96482.81;;;13.16;100.00
20015;BME280;61787;42.022;23.078;2023-05-29T03:43:01;96487.13;;;13.20;100.00
20015;BME280;61787;42.022;23.078;2023-05-29T03:44:03;96482.72;;;13.32;100.00
20015;BME280;61787;42.022;23.078;2023-05-29T03:45:05;96479.00;;;13.40;100.00
20015;BME280;61787;42.022;23.078;2023-05-29T03:46:06;96481.81;;;13.47;100.00
20015;BME280;61787;42.022;23.078;2023-05-29T03:47:08;96488.88;;;13.55;100.00
20015;BME280;61787;42.022;23.078;2023-05-29T03:48:10;96486.59;;;13.57;100.00
20015;BME280;61787;42.022;23.078;2023-05-29T03:49:12;96485.97;;;13.63;100.00
20015;BME280;61787;42.022;23.078;2023-05-29T03:50:14;96485.09;;;13.59;100.00
20015;BME280;61787;42.022;23.078;2023-05-29T03:51:16;96483.97;;;13.60;100.00
20015;BME280;61787;42.022;23.078;2023-05-29T03:52:18;96482.97;;;13.69;100.00
20015;BME280;61787;42.022;23.078;2023-05-29T03:53:20;96480.75;;;13.74;99.65
20015;BME280;61787;42.022;23.078;2023-05-29T03:54:21;96485.34;;;13.74;99.04
20015;BME280;61787;42.022;23.078;2023-05-29T03:55:23;96489.13;;;13.69;99.59
20015;BME280;61787;42.022;23.078;2023-05-29T03:56:24;96492.22;;;13.71;100.00
20015;BME280;61787;42.022;23.078;2023-05-29T03:57:26;96483.66;;;13.65;99.62
20015;BME280;61787;42.022;23.078;2023-05-29T03:58:28;96495.97;;;13.63;100.00
20015;BME280;61787;42.022;23.078;2023-05-29T03:59:30;96491.41;;;13.67;100.00
20015;BME280;61787;42.022;23.078;2023-05-29T04:00:32;96497.25;;;13.73;100.00
20015;BME280;61787;42.022;23.078;2023-05-29T04:01:33;96492.75;;;13.80;100.00
20015;BME280;61787;42.022;23.078;2023-05-29T04:02:37;96492.44;;;13.85;100.00
20015;BME280;61787;42.022;23.078;2023-05-29T04:03:39;96484.13;;;13.94;99.83
20015;BME280;61787;42.022;23.078;2023-05-29T04:04:40;96483.56;;;14.07;99.47
20015;BME280;61787;42.022;23.078;2023-05-29T04:05:42;96482.25;;;14.24;99.03
20015;BME280;61787;42.022;23.078;2023-05-29T04:06:44;96484.06;;;14.43;98.11
20015;BME280;61787;42.022;23.078;2023-05-29T04:07:46;96489.66;;;14.57;97.79
20015;BME280;61787;42.022;23.078;2023-05-29T04:08:47;96491.38;;;14.72;97.97
20015;BME280;61787;42.022;23.078;2023-05-29T04:09:49;96495.88;;;14.91;96.94
20015;BME280;61787;42.022;23.078;2023-05-29T04:10:51;96501.78;;;15.04;97.22
20015;BME280;61787;42.022;23.078;2023-05-29T04:11:55;96498.88;;;15.19;96.29
20015;BME280;61787;42.022;23.078;2023-05-29T04:12:56;96501.75;;;15.33;96.06
20015;BME280;61787;42.022;23.078;2023-05-29T04:13:58;96503.78;;;15.47;95.65
20015;BME280;61787;42.022;23.078;2023-05-29T04:15:00;96509.78;;;15.63;94.69
20015;BME280;61787;42.022;23.078;2023-05-29T04:16:01;96506.03;;;15.78;93.65
20015;BME280;61787;42.022;23.078;2023-05-29T04:17:03;96502.66;;;15.89;91.43
20015;BME280;61787;42.022;23.078;2023-05-29T04:18:04;96513.56;;;15.99;91.62
20015;BME280;61787;42.022;23.078;2023-05-29T04:19:07;96505.53;;;16.10;90.90
20015;BME280;61787;42.022;23.078;2023-05-29T04:20:09;96511.00;;;16.20;89.05
20015;BME280;61787;42.022;23.078;2023-05-29T04:21:11;96507.94;;;16.26;89.26
20015;BME280;61787;42.022;23.078;2023-05-29T04:22:13;96509.53;;;16.30;87.50
20015;BME280;61787;42.022;23.078;2023-05-29T04:23:15;96510.59;;;16.22;87.86
20015;BME280;61787;42.022;23.078;2023-05-29T04:24:16;96512.97;;;16.27;88.00
20015;BME280;61787;42.022;23.078;2023-05-29T04:25:18;96516.94;;;16.40;88.35
20015;BME280;61787;42.022;23.078;2023-05-29T04:26:22;96515.09;;;16.55;88.49
20015;BME280;61787;42.022;23.078;2023-05-29T04:27:26;96513.19;;;16.62;86.59
20015;BME280;61787;42.022;23.078;2023-05-29T04:28:27;96514.03;;;16.74;85.94
20015;BME280;61787;42.022;23.078;2023-05-29T04:29:29;96510.22;;;16.85;85.34
20015;BME280;61787;42.022;23.078;2023-05-29T04:30:31;96505.63;;;17.00;85.10
20015;BME280;61787;42.022;23.078;2023-05-29T04:31:35;96508.03;;;17.16;84.30
20015;BME280;61787;42.022;23.078;2023-05-29T04:32:38;96512.72;;;17.36;82.36
20015;BME280;61787;42.022;23.078;2023-05-29T04:33:41;96513.53;;;17.44;80.78
20015;BME280;61787;42.022;23.078;2023-05-29T04:34:46;96505.78;;;17.42;81.13
20015;BME280;61787;42.022;23.078;2023-05-29T04:35:50;96508.50;;;17.57;81.29
20015;BME280;61787;42.022;23.078;2023-05-29T04:36:51;96512.81;;;17.72;80.44
20015;BME280;61787;42.022;23.078;2023-05-29T04:37:53;96508.94;;;17.87;79.05
20015;BME280;61787;42.022;23.078;2023-05-29T04:38:55;96511.66;;;17.98;78.39
20015;BME280;61787;42.022;23.078;2023-05-29T04:39:56;96512.06;;;18.00;77.75
20015;BME280;61787;42.022;23.078;2023-05-29T04:40:59;96513.59;;;17.83;78.07
20015;BME280;61787;42.022;23.078;2023-05-29T04:42:00;96522.13;;;17.85;78.15
20015;BME280;61787;42.022;23.078;2023-05-29T04:43:03;96519.00;;;17.97;77.62
20015;BME280;61787;42.022;23.078;2023-05-29T04:44:06;96519.00;;;18.01;77.59
20015;BME280;61787;42.022;23.078;2023-05-29T04:45:09;96519.78;;;18.01;77.48
20015;BME280;61787;42.022;23.078;2023-05-29T04:46:14;96524.03;;;18.16;77.26
20015;BME280;61787;42.022;23.078;2023-05-29T04:47:17;96522.09;;;18.35;77.15
20015;BME280;61787;42.022;23.078;2023-05-29T04:48:18;96522.09;;;18.56;75.44
20015;BME280;61787;42.022;23.078;2023-05-29T04:49:20;96525.97;;;18.62;75.38
20015;BME280;61787;42.022;23.078;2023-05-29T04:50:23;96534.47;;;18.74;74.99
20015;BME280;61787;42.022;23.078;2023-05-29T04:51:25;96529.03;;;18.82;73.14
20015;BME280;61787;42.022;23.078;2023-05-29T04:52:26;96532.13;;;18.80;73.29
20015;BME280;61787;42.022;23.078;2023-05-29T04:53:28;96536.34;;;18.88;72.92
20015;BME280;61787;42.022;23.078;2023-05-29T04:54:31;96528.94;;;18.99;72.93
20015;BME280;61787;42.022;23.078;2023-05-29T04:55:35;96534.41;;;18.92;72.29
20015;BME280;61787;42.022;23.078;2023-05-29T04:56:37;96538.69;;;18.86;71.80
20015;BME280;61787;42.022;23.078;2023-05-29T04:57:39;96538.69;;;18.90;72.11
20015;BME280;61787;42.022;23.078;2023-05-29T04:58:41;96539.78;;;19.06;72.07
20015;BME280;61787;42.022;23.078;2023-05-29T04:59:43;96535.03;;;19.25;71.99
20015;BME280;61787;42.022;23.078;2023-05-29T05:00:45;96534.22;;;19.35;71.61
20015;BME280;61787;42.022;23.078;2023-05-29T05:01:46;96535.41;;;19.34;69.91
20015;BME280;61787;42.022;23.078;2023-05-29T05:02:49;96537.72;;;19.39;70.65
20015;BME280;61787;42.022;23.078;2023-05-29T05:03:52;96541.16;;;19.50;69.98
20015;BME280;61787;42.022;23.078;2023-05-29T05:04:57;96541.44;;;19.66;69.63
20015;BME280;61787;42.022;23.078;2023-05-29T05:06:00;96540.25;;;19.71;69.57
20015;BME280;61787;42.022;23.078;2023-05-29T05:07:05;96537.25;;;19.58;69.25
20015;BME280;61787;42.022;23.078;2023-05-29T05:08:06;96552.34;;;19.66;70.81
20015;BME280;61787;42.022;23.078;2023-05-29T05:09:08;96547.56;;;19.84;69.49
20015;BME280;61787;42.022;23.078;2023-05-29T05:10:10;96546.38;;;19.85;68.18
20015;BME280;61787;42.022;23.078;2023-05-29T05:11:12;96547.00;;;19.45;68.99
20015;BME280;61787;42.022;23.078;2023-05-29T05:12:15;96551.28;;;19.46;69.65
20015;BME280;61787;42.022;23.078;2023-05-29T05:13:17;96553.16;;;19.56;69.49
20015;BME280;61787;42.022;23.078;2023-05-29T05:14:18;96548.41;;;19.71;69.41
20015;BME280;61787;42.022;23.078;2023-05-29T05:15:20;96540.94;;;19.85;69.61
20015;BME280;61787;42.022;23.078;2023-05-29T05:16:21;96547.22;;;19.75;67.18
20015;BME280;61787;42.022;23.078;2023-05-29T05:17:23;96547.31;;;19.65;68.37
20015;BME280;61787;42.022;23.078;2023-05-29T05:18:25;96553.56;;;19.58;68.35
20015;BME280;61787;42.022;23.078;2023-05-29T05:19:27;96551.63;;;19.55;68.98
20015;BME280;61787;42.022;23.078;2023-05-29T05:20:28;96551.97;;;19.61;68.68
20015;BME280;61787;42.022;23.078;2023-05-29T05:21:30;96550.75;;;19.72;68.62
20015;BME280;61787;42.022;23.078;2023-05-29T05:22:32;96544.06;;;19.80;69.15
20015;BME280;61787;42.022;23.078;2023-05-29T05:23:34;96551.03;;;19.88;68.71
20015;BME280;61787;42.022;23.078;2023-05-29T05:24:56;96545.88;;;20.05;68.40
20015;BME280;61787;42.022;23.078;2023-05-29T05:25:58;96550.88;;;20.10;68.03
20015;BME280;61787;42.022;23.078;2023-05-29T05:26:59;96539.25;;;20.06;68.84
20015;BME280;61787;42.022;23.078;2023-05-29T05:28:02;96541.16;;;20.09;68.50
20015;BME280;61787;42.022;23.078;2023-05-29T05:29:04;96538.69;;;20.25;67.91
20015;BME280;61787;42.022;23.078;2023-05-29T05:30:06;96541.31;;;20.39;67.09
20015;BME280;61787;42.022;23.078;2023-05-29T05:31:09;96544.25;;;20.59;66.17
20015;BME280;61787;42.022;23.078;2023-05-29T05:32:10;96535.56;;;20.67;66.39
20015;BME280;61787;42.022;23.078;2023-05-29T05:33:12;96538.25;;;20.74;65.98
20015;BME280;61787;42.022;23.078;2023-05-29T05:34:14;96545.47;;;20.88;64.90
20015;BME280;61787;42.022;23.078;2023-05-29T05:35:16;96540.34;;;20.94;65.37
20015;BME280;61787;42.022;23.078;2023-05-29T05:36:18;96538.28;;;21.05;64.77